createdAt,value
2018-09-06T00:00:24.293Z,98077.00
2018-09-06T00:02:54.379Z,98071.00
2018-09-06T00:05:24.539Z,98074.00
2018-09-06T00:07:55.037Z,98076.00
2018-09-06T00:10:25.541Z,98075.00
2018-09-06T00:12:55.884Z,98072.00
2018-09-06T00:15:25.932Z,98077.00
2018-09-06T00:17:56.382Z,98073.00
2018-09-06T00:20:26.467Z,98075.00
2018-09-06T00:22:56.522Z,98077.00
2018-09-06T00:25:26.585Z,98074.00
2018-09-06T00:27:56.659Z,98069.00
2018-09-06T00:30:26.903Z,98067.00
2018-09-06T00:32:57.841Z,98065.00
2018-09-06T00:35:27.945Z,98063.00
2018-09-06T00:37:58.067Z,98069.00
2018-09-06T00:40:28.345Z,98063.00
2018-09-06T00:42:58.412Z,98060.00
2018-09-06T00:45:28.621Z,98058.00
2018-09-06T00:47:58.727Z,98057.00
2018-09-06T00:50:32.901Z,98053.00
2018-09-06T00:53:03.017Z,98048.00
2018-09-06T00:55:33.471Z,98047.00
2018-09-06T00:58:03.674Z,98045.00
2018-09-06T01:00:33.796Z,98049.00
2018-09-06T01:03:03.917Z,98046.00
2018-09-06T01:05:33.922Z,98044.00
2018-09-06T01:08:04.063Z,98041.00
2018-09-06T01:10:34.210Z,98041.00
2018-09-06T01:13:04.331Z,98043.00
2018-09-06T01:15:34.384Z,98043.00
2018-09-06T01:18:04.619Z,98040.00
2018-09-06T01:20:34.760Z,98037.00
2018-09-06T01:23:05.055Z,98039.00
2018-09-06T01:25:40.229Z,98037.00
2018-09-06T01:28:10.334Z,98039.00
2018-09-06T01:30:41.059Z,98040.00
2018-09-06T01:33:11.179Z,98046.00
2018-09-06T01:35:45.495Z,98042.00
2018-09-06T01:38:16.434Z,98046.00
2018-09-06T01:40:46.511Z,98040.00
2018-09-06T01:43:16.563Z,98044.00
2018-09-06T01:45:46.738Z,98044.00
2018-09-06T01:48:16.801Z,98042.00
2018-09-06T01:50:46.885Z,98040.00
2018-09-06T01:53:16.933Z,98040.00
2018-09-06T01:55:47.121Z,98040.00
2018-09-06T01:58:17.266Z,98031.00
2018-09-06T02:00:47.311Z,98033.00
2018-09-06T02:03:17.507Z,98027.00
2018-09-06T02:05:47.629Z,98027.00
2018-09-06T02:08:17.704Z,98028.00
2018-09-06T02:10:47.847Z,98036.00
2018-09-06T02:13:17.940Z,98036.00
2018-09-06T02:15:48.004Z,98035.00
2018-09-06T02:18:18.250Z,98034.00
2018-09-06T02:20:48.461Z,98029.00
2018-09-06T02:23:18.587Z,98032.00
2018-09-06T02:25:48.799Z,98034.00
2018-09-06T02:28:18.960Z,98028.00
2018-09-06T02:30:49.125Z,98032.00
2018-09-06T02:33:19.620Z,98027.00
2018-09-06T02:35:50.234Z,98027.00
2018-09-06T02:38:20.349Z,98027.00
2018-09-06T02:40:50.548Z,98025.00
2018-09-06T02:43:20.580Z,98025.00
2018-09-06T02:45:50.670Z,98022.00
2018-09-06T02:48:24.851Z,98021.00
2018-09-06T02:51:00.669Z,98019.00
2018-09-06T02:53:32.115Z,98023.00
2018-09-06T02:56:02.241Z,98018.00
2018-09-06T02:58:32.300Z,98018.00
2018-09-06T03:01:02.385Z,98013.00
2018-09-06T03:03:32.503Z,98009.00
2018-09-06T03:06:02.702Z,98007.00
2018-09-06T03:08:33.079Z,98004.00
2018-09-06T03:11:37.674Z,98000.00
2018-09-06T03:14:08.680Z,97999.00
2018-09-06T03:16:38.916Z,97996.00
2018-09-06T03:19:09.204Z,97997.00
2018-09-06T03:21:39.320Z,97997.00
2018-09-06T03:24:09.459Z,98001.00
2018-09-06T03:26:39.484Z,97997.00
2018-09-06T03:29:09.996Z,97997.00
2018-09-06T03:31:40.341Z,97992.00
2018-09-06T03:34:11.058Z,97990.00
2018-09-06T03:36:41.139Z,97984.00
2018-09-06T03:39:12.307Z,97980.00
2018-09-06T03:41:42.488Z,97983.00
2018-09-06T03:44:12.682Z,97980.00
2018-09-06T03:46:42.852Z,97983.00
2018-09-06T03:49:14.165Z,97981.00
2018-09-06T03:51:44.194Z,97977.00
2018-09-06T03:54:14.304Z,97975.00
2018-09-06T03:56:44.408Z,97978.00
2018-09-06T03:59:14.659Z,97975.00
2018-09-06T04:01:44.975Z,97977.00
2018-09-06T04:04:15.060Z,97977.00
2018-09-06T04:06:45.198Z,97983.00
2018-09-06T04:09:16.120Z,97980.00
2018-09-06T04:11:46.164Z,97981.00
2018-09-06T04:14:16.317Z,97984.00
2018-09-06T04:16:46.480Z,97983.00
2018-09-06T04:19:16.789Z,97981.00
2018-09-06T04:21:46.884Z,97984.00
2018-09-06T04:24:17.029Z,97977.00
2018-09-06T04:26:47.139Z,97977.00
2018-09-06T04:29:17.242Z,97984.00
2018-09-06T04:31:47.454Z,97987.00
2018-09-06T04:34:17.540Z,97984.00
2018-09-06T04:36:47.631Z,97982.00
2018-09-06T04:39:18.232Z,97981.00
2018-09-06T04:41:48.321Z,97979.00
2018-09-06T04:44:19.035Z,97978.00
2018-09-06T04:46:52.120Z,97976.00
2018-09-06T04:49:38.235Z,97978.00
2018-09-06T04:52:08.372Z,97976.00
2018-09-06T04:54:38.594Z,97982.00
2018-09-06T04:57:08.640Z,97982.00
2018-09-06T04:59:39.036Z,97988.00
2018-09-06T05:02:09.136Z,97987.00
2018-09-06T05:04:39.281Z,97987.00
2018-09-06T05:07:09.432Z,97990.00
2018-09-06T05:09:39.580Z,97989.00
2018-09-06T05:12:09.698Z,97985.00
2018-09-06T05:14:39.778Z,97986.00
2018-09-06T05:17:10.075Z,97987.00
2018-09-06T05:19:40.888Z,97987.00
2018-09-06T05:22:10.938Z,97982.00
2018-09-06T05:24:41.051Z,97983.00
2018-09-06T05:27:11.148Z,97986.00
2018-09-06T05:29:41.831Z,97983.00
2018-09-06T05:32:11.886Z,97986.00
2018-09-06T05:34:41.953Z,97990.00
2018-09-06T05:37:12.020Z,97990.00
2018-09-06T05:39:42.069Z,97994.00
2018-09-06T05:42:12.148Z,97992.00
2018-09-06T05:44:42.369Z,97989.00
2018-09-06T05:47:12.517Z,97987.00
2018-09-06T05:49:42.657Z,97981.00
2018-09-06T05:52:12.702Z,97980.00
2018-09-06T05:57:23.946Z,97979.00
2018-09-06T05:59:54.599Z,97974.00
2018-09-06T06:02:25.242Z,97976.00
2018-09-06T06:04:55.639Z,97972.00
2018-09-06T06:07:41.535Z,97966.00
2018-09-06T06:10:11.618Z,97965.00
2018-09-06T06:12:41.703Z,97967.00
2018-09-06T06:15:11.814Z,97964.00
2018-09-06T06:17:41.977Z,97963.00
2018-09-06T06:20:12.089Z,97967.00
2018-09-06T06:22:42.307Z,97968.00
2018-09-06T06:25:12.430Z,97971.00
2018-09-06T06:27:42.521Z,97973.00
2018-09-06T06:30:12.720Z,97973.00
2018-09-06T06:32:42.850Z,97968.00
2018-09-06T06:35:12.994Z,97971.00
2018-09-06T06:37:43.215Z,97969.00
2018-09-06T06:40:13.291Z,97969.00
2018-09-06T06:42:44.019Z,97970.00
2018-09-06T06:45:14.202Z,97969.00
2018-09-06T06:47:44.867Z,97961.00
2018-09-06T06:50:16.584Z,97961.00
2018-09-06T06:52:46.727Z,97956.00
2018-09-06T06:55:16.976Z,97964.00
2018-09-06T06:57:47.089Z,97960.00
2018-09-06T07:00:18.063Z,97962.00
2018-09-06T07:02:48.164Z,97960.00
2018-09-06T07:05:18.298Z,97968.00
2018-09-06T07:07:48.879Z,97968.00
2018-09-06T07:10:18.980Z,97971.00
2018-09-06T07:12:49.034Z,97970.00
2018-09-06T07:15:19.221Z,97969.00
2018-09-06T07:17:49.542Z,97969.00
2018-09-06T07:20:19.658Z,97974.00
2018-09-06T07:22:49.808Z,97966.00
2018-09-06T07:25:20.001Z,97969.00
2018-09-06T07:27:50.086Z,97968.00
2018-09-06T07:30:20.231Z,97963.00
2018-09-06T07:32:51.046Z,97956.00
2018-09-06T07:35:21.133Z,97954.00
2018-09-06T07:37:51.143Z,97948.00
2018-09-06T07:40:21.463Z,97948.00
2018-09-06T07:42:51.785Z,97944.00
2018-09-06T07:45:21.976Z,97949.00
2018-09-06T07:47:52.110Z,97947.00
2018-09-06T07:50:22.232Z,97952.00
2018-09-06T07:52:52.366Z,97945.00
2018-09-06T07:55:22.471Z,97942.00
2018-09-06T07:57:52.748Z,97946.00
2018-09-06T08:00:22.943Z,97942.00
2018-09-06T08:02:53.056Z,97941.00
2018-09-06T08:05:24.031Z,97938.00
2018-09-06T08:07:54.152Z,97937.00
2018-09-06T08:10:25.069Z,97940.00
2018-09-06T08:12:55.138Z,97942.00
2018-09-06T08:15:25.236Z,97937.00
2018-09-06T08:17:55.305Z,97938.00
2018-09-06T08:20:26.814Z,97938.00
2018-09-06T08:22:56.976Z,97935.00
2018-09-06T08:25:27.348Z,97936.00
2018-09-06T08:27:57.532Z,97932.00
2018-09-06T08:30:27.629Z,97931.00
2018-09-06T08:32:57.633Z,97934.00
2018-09-06T08:35:27.841Z,97930.00
2018-09-06T08:37:58.735Z,97931.00
2018-09-06T08:40:28.824Z,97930.00
2018-09-06T08:42:59.033Z,97931.00
2018-09-06T08:45:29.315Z,97931.00
2018-09-06T08:47:59.361Z,97926.00
2018-09-06T08:50:29.453Z,97915.00
2018-09-06T08:52:59.527Z,97913.00
2018-09-06T08:55:29.637Z,97918.00
2018-09-06T08:57:59.681Z,97913.00
2018-09-06T09:00:29.793Z,97918.00
2018-09-06T09:02:59.923Z,97909.00
2018-09-06T09:05:29.952Z,97909.00
2018-09-06T09:08:00.008Z,97913.00
2018-09-06T09:10:30.199Z,97903.00
2018-09-06T09:13:00.376Z,97904.00
2018-09-06T09:15:30.439Z,97898.00
2018-09-06T09:18:00.493Z,97900.00
2018-09-06T09:20:30.710Z,97897.00
2018-09-06T09:23:01.010Z,97888.00
2018-09-06T09:25:31.169Z,97884.00
2018-09-06T09:28:01.293Z,97879.00
2018-09-06T09:30:31.656Z,97875.00
2018-09-06T09:33:01.629Z,97874.00
2018-09-06T09:35:31.856Z,97873.00
2018-09-06T09:38:01.971Z,97876.00
2018-09-06T09:40:32.060Z,97875.00
2018-09-06T09:43:02.180Z,97875.00
2018-09-06T09:45:32.300Z,97872.00
2018-09-06T09:48:02.385Z,97869.00
2018-09-06T09:53:01.786Z,97866.00
2018-09-06T09:55:32.009Z,97867.00
2018-09-06T09:58:02.222Z,97858.00
2018-09-06T10:00:34.655Z,97858.00
2018-09-06T10:03:10.048Z,97854.00
2018-09-06T10:05:46.407Z,97849.00
2018-09-06T10:08:21.616Z,97846.00
2018-09-06T10:10:51.782Z,97839.00
2018-09-06T10:13:21.917Z,97834.00
2018-09-06T10:15:52.049Z,97830.00
2018-09-06T10:18:22.903Z,97835.00
2018-09-06T10:20:52.988Z,97832.00
2018-09-06T10:23:29.839Z,97826.00
2018-09-06T10:26:00.537Z,97826.00
2018-09-06T10:28:30.635Z,97821.00
2018-09-06T10:31:01.707Z,97814.00
2018-09-06T10:33:32.495Z,97818.00
2018-09-06T10:36:02.691Z,97815.00
2018-09-06T10:38:32.799Z,97807.00
2018-09-06T10:41:02.999Z,97804.00
2018-09-06T10:43:34.034Z,97796.00
2018-09-06T10:46:04.275Z,97794.00
2018-09-06T10:48:34.365Z,97796.00
2018-09-06T10:51:04.536Z,97795.00
2018-09-06T10:53:34.569Z,97790.00
2018-09-06T10:56:04.780Z,97790.00
2018-09-06T10:58:35.179Z,97787.00
2018-09-06T11:01:10.523Z,97785.00
2018-09-06T11:03:41.261Z,97780.00
2018-09-06T11:06:11.355Z,97775.00
2018-09-06T11:08:41.483Z,97775.00
2018-09-06T11:11:12.213Z,97775.00
2018-09-06T11:13:42.457Z,97773.00
2018-09-06T11:16:13.076Z,97771.00
2018-09-06T11:18:43.183Z,97767.00
2018-09-06T11:21:25.038Z,97764.00
2018-09-06T11:24:06.918Z,97762.00
2018-09-06T11:26:37.550Z,97754.00
2018-09-06T11:29:07.829Z,97748.00
2018-09-06T11:31:37.916Z,97748.00
2018-09-06T11:34:07.976Z,97743.00
2018-09-06T11:36:40.152Z,97737.00
2018-09-06T11:39:10.957Z,97735.00
2018-09-06T11:41:41.316Z,97733.00
2018-09-06T11:44:12.228Z,97726.00
2018-09-06T11:46:42.383Z,97727.00
2018-09-06T11:49:13.055Z,97722.00
2018-09-06T11:51:43.160Z,97721.00
2018-09-06T11:54:13.281Z,97714.00
2018-09-06T11:56:43.395Z,97712.00
2018-09-06T11:59:13.636Z,97716.00
2018-09-06T12:01:43.766Z,97712.00
2018-09-06T12:04:14.180Z,97708.00
2018-09-06T12:06:44.325Z,97703.00
2018-09-06T12:09:14.444Z,97698.00
2018-09-06T12:11:44.614Z,97697.00
2018-09-06T12:14:14.938Z,97692.00
2018-09-06T12:16:45.313Z,97689.00
2018-09-06T12:19:20.510Z,97683.00
2018-09-06T12:21:50.909Z,97682.00
2018-09-06T12:24:21.090Z,97687.00
2018-09-06T12:26:51.268Z,97680.00
2018-09-06T12:29:21.338Z,97678.00
2018-09-06T12:31:51.890Z,97674.00
2018-09-06T12:34:22.710Z,97675.00
2018-09-06T12:36:52.816Z,97670.00
2018-09-06T12:39:23.005Z,97670.00
2018-09-06T12:41:53.137Z,97663.00
2018-09-06T12:44:23.264Z,97660.00
2018-09-06T12:46:53.359Z,97661.00
2018-09-06T12:49:23.523Z,97654.00
2018-09-06T12:51:53.804Z,97660.00
2018-09-06T12:54:24.004Z,97654.00
2018-09-06T12:56:54.138Z,97650.00
2018-09-06T12:59:24.612Z,97639.00
2018-09-06T13:01:55.214Z,97635.00
2018-09-06T13:04:25.394Z,97634.00
2018-09-06T13:06:55.626Z,97629.00
2018-09-06T13:09:26.248Z,97632.00
2018-09-06T13:11:56.366Z,97629.00
2018-09-06T13:14:26.960Z,97629.00
2018-09-06T13:16:57.165Z,97630.00
2018-09-06T13:19:27.541Z,97621.00
2018-09-06T13:21:58.146Z,97619.00
2018-09-06T13:24:28.520Z,97618.00
2018-09-06T13:26:58.613Z,97605.00
2018-09-06T13:29:40.380Z,97604.00
2018-09-06T13:32:10.589Z,97599.00
2018-09-06T13:34:40.682Z,97600.00
2018-09-06T13:37:11.153Z,97595.00
2018-09-06T13:39:41.361Z,97599.00
2018-09-06T13:42:11.488Z,97592.00
2018-09-06T13:44:41.620Z,97583.00
2018-09-06T13:47:11.680Z,97587.00
2018-09-06T13:49:41.773Z,97586.00
2018-09-06T13:52:12.301Z,97583.00
2018-09-06T13:54:42.699Z,97582.00
2018-09-06T13:57:12.695Z,97582.00
2018-09-06T13:59:42.744Z,97575.00
2018-09-06T14:02:12.867Z,97570.00
2018-09-06T14:04:42.901Z,97572.00
2018-09-06T14:07:13.023Z,97575.00
2018-09-06T14:09:43.137Z,97571.00
2018-09-06T14:12:13.371Z,97568.00
2018-09-06T14:14:43.503Z,97569.00
2018-09-06T14:17:13.551Z,97568.00
2018-09-06T14:19:43.729Z,97566.00
2018-09-06T14:22:13.925Z,97564.00
2018-09-06T14:24:44.049Z,97561.00
2018-09-06T14:27:14.106Z,97556.00
2018-09-06T14:29:44.233Z,97558.00
2018-09-06T14:32:14.264Z,97554.00
2018-09-06T14:34:44.455Z,97560.00
2018-09-06T14:37:14.710Z,97557.00
2018-09-06T14:39:44.909Z,97550.00
2018-09-06T14:42:15.061Z,97546.00
2018-09-06T14:44:45.129Z,97545.00
2018-09-06T14:47:15.271Z,97544.00
2018-09-06T14:49:45.390Z,97538.00
2018-09-06T14:52:15.632Z,97536.00
2018-09-06T14:54:45.688Z,97535.00
2018-09-06T14:57:15.934Z,97534.00
2018-09-06T14:59:46.107Z,97534.00
2018-09-06T15:02:16.203Z,97535.00
2018-09-06T15:04:46.336Z,97536.00
2018-09-06T15:07:16.458Z,97534.00
2018-09-06T15:09:47.054Z,97529.00
2018-09-06T15:12:17.175Z,97530.00
2018-09-06T15:14:47.882Z,97526.00
2018-09-06T15:17:18.228Z,97522.00
2018-09-06T15:19:48.306Z,97515.00
2018-09-06T15:22:18.513Z,97510.00
2018-09-06T15:24:49.082Z,97510.00
2018-09-06T15:27:19.688Z,97508.00
2018-09-06T15:29:49.748Z,97499.00
2018-09-06T15:32:20.019Z,97494.00
2018-09-06T15:34:50.138Z,97495.00
2018-09-06T15:37:20.804Z,97497.00
2018-09-06T15:39:50.889Z,97500.00
2018-09-06T15:42:21.080Z,97496.00
2018-09-06T15:44:52.126Z,97501.00
2018-09-06T15:47:22.270Z,97498.00
2018-09-06T15:49:52.326Z,97495.00
2018-09-06T15:52:22.520Z,97489.00
2018-09-06T15:54:52.568Z,97496.00
2018-09-06T15:57:22.650Z,97493.00
2018-09-06T15:59:52.856Z,97485.00
2018-09-06T16:02:23.529Z,97484.00
2018-09-06T16:04:53.676Z,97478.00
2018-09-06T16:07:23.797Z,97475.00
2018-09-06T16:09:54.516Z,97474.00
2018-09-06T16:12:24.637Z,97476.00
2018-09-06T16:14:54.663Z,97478.00
2018-09-06T16:17:24.754Z,97475.00
2018-09-06T16:19:55.114Z,97474.00
2018-09-06T16:22:25.404Z,97473.00
2018-09-06T16:24:55.550Z,97474.00
2018-09-06T16:27:25.828Z,97475.00
2018-09-06T16:29:56.023Z,97466.00
2018-09-06T16:32:26.244Z,97470.00
2018-09-06T16:34:56.976Z,97471.00
2018-09-06T16:37:27.068Z,97473.00
2018-09-06T16:39:57.510Z,97471.00
2018-09-06T16:42:27.670Z,97466.00
2018-09-06T16:44:58.272Z,97464.00
2018-09-06T16:47:29.022Z,97470.00
2018-09-06T16:49:59.235Z,97475.00
2018-09-06T16:52:29.992Z,97471.00
2018-09-06T16:55:00.012Z,97468.00
2018-09-06T16:57:30.122Z,97468.00
2018-09-06T17:00:00.253Z,97473.00
2018-09-06T17:02:30.868Z,97472.00
2018-09-06T17:05:01.201Z,97473.00
2018-09-06T17:07:31.387Z,97479.00
2018-09-06T17:10:01.530Z,97471.00
2018-09-06T17:12:31.738Z,97471.00
2018-09-06T17:15:01.829Z,97466.00
2018-09-06T17:17:31.997Z,97469.00
2018-09-06T17:20:08.277Z,97465.00
2018-09-06T17:22:38.498Z,97471.00
2018-09-06T17:25:08.639Z,97470.00
2018-09-06T17:27:39.050Z,97470.00
2018-09-06T17:30:09.230Z,97471.00
2018-09-06T17:32:39.469Z,97478.00
2018-09-06T17:35:09.481Z,97479.00
2018-09-06T17:37:39.654Z,97482.00
2018-09-06T17:40:10.343Z,97478.00
2018-09-06T17:42:40.497Z,97477.00
2018-09-06T17:45:10.607Z,97480.00
2018-09-06T17:47:40.755Z,97482.00
2018-09-06T17:50:10.844Z,97484.00
2018-09-06T17:52:41.005Z,97489.00
2018-09-06T17:55:11.431Z,97491.00
2018-09-06T17:57:41.536Z,97498.00
2018-09-06T18:00:11.667Z,97505.00
2018-09-06T18:02:42.128Z,97510.00
2018-09-06T18:05:12.288Z,97512.00
2018-09-06T18:07:42.951Z,97507.00
2018-09-06T18:10:13.147Z,97512.00
2018-09-06T18:12:43.281Z,97514.00
2018-09-06T18:15:13.431Z,97518.00
2018-09-06T18:17:43.784Z,97521.00
2018-09-06T18:20:13.757Z,97525.00
2018-09-06T18:22:43.965Z,97527.00
2018-09-06T18:25:15.073Z,97534.00
2018-09-06T18:27:46.303Z,97532.00
2018-09-06T18:30:16.472Z,97536.00
2018-09-06T18:32:47.267Z,97542.00
2018-09-06T18:35:17.457Z,97545.00
2018-09-06T18:37:47.705Z,97548.00
2018-09-06T18:40:18.705Z,97550.00
2018-09-06T18:42:48.867Z,97556.00
2018-09-06T18:45:19.181Z,97559.00
2018-09-06T18:47:49.454Z,97555.00
2018-09-06T18:50:20.418Z,97554.00
2018-09-06T18:52:50.567Z,97559.00
2018-09-06T18:55:20.771Z,97562.00
2018-09-06T18:57:50.887Z,97560.00
2018-09-06T19:00:20.983Z,97562.00
2018-09-06T19:02:52.611Z,97557.00
2018-09-06T19:05:22.793Z,97551.00
2018-09-06T19:07:53.013Z,97550.00
2018-09-06T19:10:23.141Z,97552.00
2018-09-06T19:12:53.235Z,97551.00
2018-09-06T19:15:23.438Z,97551.00
2018-09-06T19:17:53.747Z,97550.00
2018-09-06T19:20:23.847Z,97549.00
2018-09-06T19:22:54.068Z,97547.00
2018-09-06T19:25:24.900Z,97547.00
2018-09-06T19:27:56.198Z,97541.00
2018-09-06T19:30:26.300Z,97546.00
2018-09-06T19:32:57.212Z,97546.00
2018-09-06T19:35:27.490Z,97545.00
2018-09-06T19:37:57.613Z,97554.00
2018-09-06T19:40:27.770Z,97548.00
2018-09-06T19:42:57.937Z,97547.00
2018-09-06T19:45:28.002Z,97549.00
2018-09-06T19:47:58.189Z,97548.00
2018-09-06T19:50:28.322Z,97550.00
2018-09-06T19:52:58.380Z,97550.00
2018-09-06T19:55:28.474Z,97546.00
2018-09-06T19:57:59.516Z,97560.00
2018-09-06T20:00:29.669Z,97557.00
2018-09-06T20:02:59.993Z,97553.00
2018-09-06T20:05:30.146Z,97556.00
2018-09-06T20:08:00.306Z,97564.00
2018-09-06T20:10:30.374Z,97571.00
2018-09-06T20:13:00.679Z,97571.00
2018-09-06T20:15:30.816Z,97579.00
2018-09-06T20:18:00.984Z,97583.00
2018-09-06T20:20:31.098Z,97575.00
2018-09-06T20:23:01.503Z,97575.00
2018-09-06T20:25:31.596Z,97575.00
2018-09-06T20:28:01.863Z,97577.00
2018-09-06T20:30:31.932Z,97577.00
2018-09-06T20:33:02.667Z,97581.00
2018-09-06T20:35:32.788Z,97582.00
2018-09-06T20:38:02.950Z,97581.00
2018-09-06T20:40:33.138Z,97581.00
2018-09-06T20:43:03.690Z,97585.00
2018-09-06T20:45:33.896Z,97595.00
2018-09-06T20:48:04.052Z,97599.00
2018-09-06T20:50:35.746Z,97600.00
2018-09-06T20:53:06.849Z,97600.00
2018-09-06T20:55:37.063Z,97604.00
2018-09-06T20:58:07.486Z,97610.00
2018-09-06T21:00:37.655Z,97605.00
2018-09-06T21:03:08.079Z,97598.00
2018-09-06T21:05:38.093Z,97606.00
2018-09-06T21:08:08.259Z,97609.00
2018-09-06T21:10:38.672Z,97615.00
2018-09-06T21:13:08.967Z,97612.00
2018-09-06T21:15:39.763Z,97605.00
2018-09-06T21:18:09.957Z,97617.00
2018-09-06T21:20:40.003Z,97616.00
2018-09-06T21:23:10.261Z,97630.00
2018-09-06T21:25:40.379Z,97633.00
2018-09-06T21:28:11.086Z,97630.00
2018-09-06T21:30:41.247Z,97630.00
2018-09-06T21:33:11.363Z,97625.00
2018-09-06T21:35:41.423Z,97631.00
2018-09-06T21:38:11.507Z,97633.00
2018-09-06T21:40:41.633Z,97634.00
2018-09-06T21:43:11.847Z,97637.00
2018-09-06T21:45:41.878Z,97647.00
2018-09-06T21:48:12.112Z,97649.00
2018-09-06T21:50:42.206Z,97653.00
2018-09-06T21:53:13.103Z,97649.00
2018-09-06T21:55:43.149Z,97647.00
2018-09-06T21:58:13.335Z,97646.00
2018-09-06T22:00:43.608Z,97654.00
2018-09-06T22:03:18.954Z,97662.00
2018-09-06T22:05:49.043Z,97665.00
2018-09-06T22:08:19.255Z,97671.00
2018-09-06T22:10:49.400Z,97670.00
2018-09-06T22:13:19.520Z,97663.00
2018-09-06T22:15:50.063Z,97657.00
2018-09-06T22:18:20.223Z,97658.00
2018-09-06T22:20:50.464Z,97662.00
2018-09-06T22:23:20.543Z,97664.00
2018-09-06T22:25:50.611Z,97658.00
2018-09-06T22:28:21.020Z,97657.00
2018-09-06T22:30:51.126Z,97661.00
2018-09-06T22:33:21.166Z,97662.00
2018-09-06T22:35:51.236Z,97666.00
2018-09-06T22:38:21.956Z,97659.00
2018-09-06T22:40:52.279Z,97654.00
2018-09-06T22:43:22.367Z,97655.00
2018-09-06T22:45:52.477Z,97654.00
2018-09-06T22:48:22.610Z,97654.00
2018-09-06T22:50:52.890Z,97655.00
2018-09-06T22:53:23.044Z,97657.00
2018-09-06T22:55:53.758Z,97654.00
2018-09-06T22:58:23.877Z,97660.00
2018-09-06T23:00:53.983Z,97668.00
2018-09-06T23:03:29.406Z,97674.00
2018-09-06T23:06:00.162Z,97669.00
2018-09-06T23:08:30.280Z,97669.00
2018-09-06T23:11:00.463Z,97660.00
2018-09-06T23:13:31.197Z,97656.00
2018-09-06T23:16:01.369Z,97663.00
2018-09-06T23:18:32.056Z,97665.00
2018-09-06T23:21:03.185Z,97671.00
2018-09-06T23:23:33.306Z,97675.00
2018-09-06T23:26:03.414Z,97671.00
2018-09-06T23:28:33.546Z,97673.00
2018-09-06T23:31:03.689Z,97677.00
2018-09-06T23:33:33.896Z,97684.00
2018-09-06T23:36:03.971Z,97687.00
2018-09-06T23:38:34.054Z,97679.00
2018-09-06T23:41:04.150Z,97684.00
2018-09-06T23:43:34.300Z,97690.00
2018-09-06T23:46:04.490Z,97686.00
2018-09-06T23:48:34.553Z,97683.00
2018-09-06T23:51:04.792Z,97686.00
2018-09-06T23:53:34.844Z,97685.00
2018-09-06T23:56:04.905Z,97677.00
2018-09-06T23:58:35.187Z,97681.00
